createdAt,value
2017-03-21T00:01:04.962Z,0
2017-03-21T00:02:13.969Z,0
2017-03-21T00:03:23.345Z,0
2017-03-21T00:04:32.727Z,0
2017-03-21T00:05:42.107Z,0
2017-03-21T00:06:51.181Z,0
2017-03-21T00:08:00.257Z,0
2017-03-21T00:09:09.637Z,0
2017-03-21T00:10:19.267Z,0
2017-03-21T00:11:28.280Z,0
2017-03-21T00:12:37.637Z,0
2017-03-21T00:13:46.968Z,0
2017-03-21T00:14:56.350Z,0
2017-03-21T00:16:06.032Z,0
2017-03-21T00:17:15.097Z,0
2017-03-21T00:18:25.080Z,0
2017-03-21T00:19:34.156Z,0
2017-03-21T00:20:43.224Z,0
2017-03-21T00:21:52.238Z,0
2017-03-21T00:23:01.909Z,0
2017-03-21T00:24:11.541Z,0
2017-03-21T00:25:20.843Z,0
2017-03-21T00:26:29.899Z,0
2017-03-21T00:27:39.277Z,0
2017-03-21T00:28:48.052Z,0
2017-03-21T00:29:57.434Z,0
2017-03-21T00:31:06.748Z,0
2017-03-21T00:32:15.810Z,0
2017-03-21T00:33:25.492Z,0
2017-03-21T00:34:34.807Z,0
2017-03-21T00:35:43.562Z,0
2017-03-21T00:36:52.950Z,0
2017-03-21T00:38:02.358Z,0
2017-03-21T00:39:12.059Z,0
2017-03-21T00:40:21.988Z,0
2017-03-21T00:41:31.043Z,0
2017-03-21T00:42:40.419Z,0
2017-03-21T00:43:49.805Z,0
2017-03-21T00:44:59.737Z,0
2017-03-21T00:46:08.766Z,0
2017-03-21T00:47:17.567Z,0
2017-03-21T00:48:27.856Z,0
2017-03-21T00:49:36.630Z,0
2017-03-21T00:50:46.004Z,0
2017-03-21T00:51:54.773Z,0
2017-03-21T00:53:04.454Z,0
2017-03-21T00:54:14.136Z,0
2017-03-21T00:55:22.911Z,0
2017-03-21T00:56:32.232Z,0
2017-03-21T00:57:41.592Z,0
2017-03-21T00:58:51.253Z,0
2017-03-21T01:00:00.327Z,0
2017-03-21T01:01:09.388Z,0
2017-03-21T01:02:18.449Z,0
2017-03-21T01:03:27.214Z,0
2017-03-21T01:04:36.790Z,0
2017-03-21T01:05:46.162Z,0
2017-03-21T01:06:54.923Z,0
2017-03-21T01:08:03.989Z,0
2017-03-21T01:09:13.371Z,0
2017-03-21T01:10:22.747Z,0
2017-03-21T01:11:31.794Z,0
2017-03-21T01:12:41.175Z,0
2017-03-21T01:13:50.559Z,0
2017-03-21T01:14:59.836Z,0
2017-03-21T01:16:08.849Z,0
2017-03-21T01:17:18.205Z,0
2017-03-21T01:18:28.192Z,0
2017-03-21T01:19:38.172Z,0
2017-03-21T01:20:47.237Z,0
2017-03-21T01:21:55.948Z,0
2017-03-21T01:23:05.312Z,0
2017-03-21T01:24:14.696Z,0
2017-03-21T01:25:24.068Z,0
2017-03-21T01:26:33.750Z,0
2017-03-21T01:27:43.126Z,0
2017-03-21T01:28:52.815Z,0
2017-03-21T01:30:02.502Z,0
2017-03-21T01:31:11.506Z,0
2017-03-21T01:32:20.563Z,0
2017-03-21T01:33:29.932Z,0
2017-03-21T01:34:38.989Z,0
2017-03-21T01:35:47.732Z,0
2017-03-21T01:36:56.496Z,0
2017-03-21T01:38:05.560Z,0
2017-03-21T01:39:14.282Z,0
2017-03-21T01:40:23.650Z,0
2017-03-21T01:41:33.014Z,0
2017-03-21T01:42:42.094Z,0
2017-03-21T01:43:52.081Z,0
2017-03-21T01:45:02.071Z,0
2017-03-21T01:46:11.125Z,0
2017-03-21T01:47:20.235Z,0
2017-03-21T01:48:29.937Z,0
2017-03-21T01:49:39.931Z,0
2017-03-21T01:50:48.946Z,0
2017-03-21T01:51:57.702Z,0
2017-03-21T01:53:08.196Z,0
2017-03-21T01:54:18.198Z,0
2017-03-21T01:55:26.973Z,0
2017-03-21T01:56:36.047Z,0
2017-03-21T01:57:45.426Z,0
2017-03-21T01:58:55.368Z,0
2017-03-21T02:00:04.738Z,0
2017-03-21T02:01:13.509Z,0
2017-03-21T02:02:22.888Z,0
2017-03-21T02:03:32.876Z,0
2017-03-21T02:04:42.461Z,0
2017-03-21T02:05:51.232Z,0
2017-03-21T02:07:00.304Z,0
2017-03-21T02:08:10.320Z,0
2017-03-21T02:09:20.019Z,0
2017-03-21T02:10:29.697Z,0
2017-03-21T02:11:39.071Z,0
2017-03-21T02:12:49.047Z,0
2017-03-21T02:13:59.329Z,0
2017-03-21T02:15:08.706Z,0
2017-03-21T02:16:17.781Z,0
2017-03-21T02:17:26.857Z,0
2017-03-21T02:18:36.491Z,0
2017-03-21T02:19:45.553Z,0
2017-03-21T02:20:54.625Z,0
2017-03-21T02:22:03.697Z,0
2017-03-21T02:23:12.772Z,0
2017-03-21T02:24:22.705Z,0
2017-03-21T02:25:31.769Z,0
2017-03-21T02:26:40.536Z,0
2017-03-21T02:27:49.914Z,0
2017-03-21T02:28:59.601Z,0
2017-03-21T02:30:08.621Z,0
2017-03-21T02:31:17.979Z,0
2017-03-21T02:32:27.296Z,0
2017-03-21T02:33:36.362Z,0
2017-03-21T02:34:45.736Z,0
2017-03-21T02:35:55.105Z,0
2017-03-21T02:37:03.870Z,0
2017-03-21T02:38:13.855Z,0
2017-03-21T02:39:23.846Z,0
2017-03-21T02:40:33.733Z,0
2017-03-21T02:41:43.308Z,0
2017-03-21T02:42:52.682Z,0
2017-03-21T02:44:02.014Z,0
2017-03-21T02:45:10.762Z,0
2017-03-21T02:46:20.683Z,0
2017-03-21T02:47:29.760Z,0
2017-03-21T02:48:39.089Z,0
2017-03-21T02:49:47.843Z,0
2017-03-21T02:50:57.166Z,0
2017-03-21T02:52:06.728Z,0
2017-03-21T02:53:16.116Z,0
2017-03-21T02:54:26.099Z,0
2017-03-21T02:55:35.169Z,0
2017-03-21T02:56:43.878Z,0
2017-03-21T02:57:54.102Z,0
2017-03-21T02:59:03.471Z,0
2017-03-21T03:00:13.096Z,0
2017-03-21T03:01:22.490Z,0
2017-03-21T03:02:31.809Z,0
2017-03-21T03:03:41.362Z,0
2017-03-21T03:04:51.027Z,0
2017-03-21T03:06:00.701Z,0
2017-03-21T03:07:09.751Z,0
2017-03-21T03:08:19.724Z,0
2017-03-21T03:09:29.725Z,0
2017-03-21T03:10:38.499Z,0
2017-03-21T03:11:47.584Z,0
2017-03-21T03:12:56.349Z,0
2017-03-21T03:14:06.646Z,0
2017-03-21T03:15:16.035Z,0
2017-03-21T03:16:25.300Z,0
2017-03-21T03:17:35.286Z,0
2017-03-21T03:18:45.269Z,0
2017-03-21T03:19:54.649Z,0
2017-03-21T03:21:04.024Z,0
2017-03-21T03:22:13.097Z,0
2017-03-21T03:23:22.124Z,0
2017-03-21T03:24:31.796Z,0
2017-03-21T03:25:41.172Z,0
2017-03-21T03:26:50.240Z,0
2017-03-21T03:27:59.923Z,0
2017-03-21T03:29:09.906Z,0
2017-03-21T03:30:18.922Z,0
2017-03-21T03:31:28.299Z,0
2017-03-21T03:32:38.288Z,0
2017-03-21T03:33:47.675Z,0
2017-03-21T03:34:56.702Z,0
2017-03-21T03:36:06.364Z,0
2017-03-21T03:37:15.437Z,0
2017-03-21T03:38:25.122Z,0
2017-03-21T03:39:34.806Z,0
2017-03-21T03:40:51.345Z,0
2017-03-21T03:42:01.341Z,0
2017-03-21T03:43:10.724Z,0
2017-03-21T03:44:20.717Z,0
2017-03-21T03:45:29.795Z,0
2017-03-21T03:46:39.173Z,0
2017-03-21T03:47:48.555Z,0
2017-03-21T03:48:57.921Z,0
2017-03-21T03:50:06.682Z,0
2017-03-21T03:51:15.441Z,0
2017-03-21T03:52:24.815Z,0
2017-03-21T03:53:33.887Z,0
2017-03-21T03:54:42.956Z,0
2017-03-21T03:55:52.314Z,0
2017-03-21T03:57:02.003Z,0
2017-03-21T03:58:11.389Z,0
2017-03-21T03:59:21.064Z,0
2017-03-21T04:00:30.148Z,0
2017-03-21T04:01:38.920Z,0
2017-03-21T04:02:48.527Z,0
2017-03-21T04:03:58.812Z,0
2017-03-21T04:05:07.827Z,0
2017-03-21T04:06:16.585Z,0
2017-03-21T04:07:25.648Z,0
2017-03-21T04:08:35.326Z,0
2017-03-21T04:09:45.306Z,0
2017-03-21T04:10:54.976Z,0
2017-03-21T04:12:04.053Z,0
2017-03-21T04:13:13.723Z,0
2017-03-21T04:14:23.703Z,0
2017-03-21T04:15:33.016Z,0
2017-03-21T04:16:42.064Z,0
2017-03-21T04:17:51.775Z,0
2017-03-21T04:19:01.394Z,0
2017-03-21T04:20:11.052Z,0
2017-03-21T04:21:20.114Z,0
2017-03-21T04:22:29.124Z,0
2017-03-21T04:23:38.437Z,0
2017-03-21T04:24:47.504Z,0
2017-03-21T04:25:56.871Z,0
2017-03-21T04:27:06.238Z,0
2017-03-21T04:28:15.823Z,0
2017-03-21T04:29:24.898Z,0
2017-03-21T04:30:34.255Z,0
2017-03-21T04:31:43.618Z,0
2017-03-21T04:32:52.677Z,0
2017-03-21T04:34:02.364Z,0
2017-03-21T04:35:11.733Z,0
2017-03-21T04:36:21.103Z,0
2017-03-21T04:37:29.915Z,0
2017-03-21T04:38:39.016Z,0
2017-03-21T04:39:48.383Z,0
2017-03-21T04:40:57.749Z,0
2017-03-21T04:42:07.114Z,0
2017-03-21T04:43:16.532Z,0
2017-03-21T04:44:25.901Z,0
2017-03-21T04:45:35.272Z,0
2017-03-21T04:46:44.006Z,0
2017-03-21T04:47:53.071Z,0
2017-03-21T04:49:02.441Z,0
2017-03-21T04:50:11.515Z,0
2017-03-21T04:51:20.885Z,0
2017-03-21T04:52:29.947Z,0
2017-03-21T04:53:39.020Z,0
2017-03-21T04:54:48.391Z,0
2017-03-21T04:55:57.451Z,0
2017-03-21T04:57:06.765Z,0
2017-03-21T04:58:16.943Z,0
2017-03-21T04:59:26.926Z,0
2017-03-21T05:00:35.989Z,0
2017-03-21T05:01:45.371Z,0
2017-03-21T05:02:54.140Z,0
2017-03-21T05:04:03.820Z,0
2017-03-21T05:05:13.195Z,0
2017-03-21T05:06:22.262Z,0
2017-03-21T05:07:31.319Z,0
2017-03-21T05:08:40.686Z,0
2017-03-21T05:09:50.055Z,0
2017-03-21T05:10:59.739Z,0
2017-03-21T05:12:08.762Z,0
2017-03-21T05:13:18.112Z,0
2017-03-21T05:14:27.737Z,0
2017-03-21T05:15:36.786Z,0
2017-03-21T05:16:45.541Z,0
2017-03-21T05:17:54.921Z,0
2017-03-21T05:19:04.603Z,0
2017-03-21T05:20:13.966Z,0
2017-03-21T05:21:23.042Z,4
2017-03-21T05:22:32.302Z,4
2017-03-21T05:23:42.226Z,0
2017-03-21T05:24:52.490Z,4
2017-03-21T05:26:01.861Z,4
2017-03-21T05:27:10.925Z,4
2017-03-21T05:28:19.943Z,4
2017-03-21T05:29:29.307Z,4
2017-03-21T05:30:38.322Z,4
2017-03-21T05:31:47.373Z,8
2017-03-21T05:32:56.142Z,4
2017-03-21T05:34:05.859Z,4
2017-03-21T05:35:14.933Z,4
2017-03-21T05:36:23.698Z,4
2017-03-21T05:37:32.764Z,8
2017-03-21T05:38:42.989Z,8
2017-03-21T05:39:52.964Z,8
2017-03-21T05:41:02.042Z,12
2017-03-21T05:42:11.104Z,12
2017-03-21T05:43:20.779Z,12
2017-03-21T05:44:30.503Z,16
2017-03-21T05:45:40.183Z,16
2017-03-21T05:46:49.546Z,24
2017-03-21T05:47:58.759Z,24
2017-03-21T05:49:07.820Z,28
2017-03-21T05:50:17.533Z,20
2017-03-21T05:51:27.071Z,28
2017-03-21T05:52:36.127Z,28
2017-03-21T05:53:45.494Z,28
2017-03-21T05:54:55.729Z,48
2017-03-21T05:56:04.786Z,60
2017-03-21T05:57:13.555Z,56
2017-03-21T05:58:23.122Z,72
2017-03-21T05:59:33.098Z,72
2017-03-21T06:00:42.469Z,92
2017-03-21T06:01:51.540Z,76
2017-03-21T06:03:00.909Z,84
2017-03-21T06:04:10.225Z,128
2017-03-21T06:05:19.578Z,124
2017-03-21T06:06:28.283Z,100
2017-03-21T06:07:37.588Z,128
2017-03-21T06:08:47.001Z,124
2017-03-21T06:09:56.385Z,156
2017-03-21T06:11:05.743Z,188
2017-03-21T06:12:15.038Z,276
2017-03-21T06:13:24.742Z,228
2017-03-21T06:14:34.118Z,280
2017-03-21T06:15:42.920Z,300
2017-03-21T06:16:52.243Z,296
2017-03-21T06:18:00.995Z,240
2017-03-21T06:19:10.010Z,196
2017-03-21T06:20:19.058Z,164
2017-03-21T06:21:27.818Z,136
2017-03-21T06:22:37.131Z,128
2017-03-21T06:23:46.432Z,128
2017-03-21T06:24:55.496Z,120
2017-03-21T06:26:04.870Z,104
2017-03-21T06:27:13.940Z,88
2017-03-21T06:28:23.316Z,80
2017-03-21T06:29:32.945Z,80
2017-03-21T06:30:42.016Z,68
2017-03-21T06:31:52.214Z,68
2017-03-21T06:33:01.291Z,80
2017-03-21T06:34:10.365Z,104
2017-03-21T06:35:19.733Z,136
2017-03-21T06:36:29.456Z,156
2017-03-21T06:37:38.817Z,164
2017-03-21T06:38:49.037Z,168
2017-03-21T06:39:59.170Z,180
2017-03-21T06:41:08.122Z,192
2017-03-21T06:42:17.443Z,228
2017-03-21T06:43:26.496Z,280
2017-03-21T06:44:35.872Z,288
2017-03-21T06:45:45.243Z,284
2017-03-21T06:46:54.006Z,324
2017-03-21T06:48:03.068Z,360
2017-03-21T06:49:12.087Z,360
2017-03-21T06:50:21.447Z,360
2017-03-21T06:51:30.215Z,364
2017-03-21T06:52:39.906Z,388
2017-03-21T06:53:49.893Z,392
2017-03-21T06:54:58.952Z,412
2017-03-21T06:56:08.023Z,404
2017-03-21T06:57:17.646Z,432
2017-03-21T06:58:27.321Z,456
2017-03-21T06:59:36.704Z,472
2017-03-21T07:00:45.459Z,452
2017-03-21T07:01:55.143Z,440
2017-03-21T07:03:04.220Z,440
2017-03-21T07:04:14.514Z,440
2017-03-21T07:05:23.582Z,428
2017-03-21T07:06:32.646Z,400
2017-03-21T07:07:41.729Z,364
2017-03-21T07:08:51.414Z,388
2017-03-21T07:10:00.794Z,380
2017-03-21T07:11:09.560Z,368
2017-03-21T07:12:18.328Z,420
2017-03-21T07:13:28.055Z,500
2017-03-21T07:14:37.018Z,532
2017-03-21T07:15:45.762Z,556
2017-03-21T07:16:54.517Z,576
2017-03-21T07:18:03.884Z,552
2017-03-21T07:19:13.558Z,544
2017-03-21T07:20:22.366Z,520
2017-03-21T07:21:31.423Z,544
2017-03-21T07:22:40.194Z,572
2017-03-21T07:23:50.174Z,588
2017-03-21T07:25:00.457Z,532
2017-03-21T07:26:09.535Z,648
2017-03-21T07:27:18.297Z,696
2017-03-21T07:28:27.354Z,880
2017-03-21T07:29:36.123Z,1024
2017-03-21T07:30:44.893Z,1508
2017-03-21T07:31:53.963Z,996
2017-03-21T07:33:03.585Z,1044
2017-03-21T07:34:12.649Z,876
2017-03-21T07:35:22.318Z,1152
2017-03-21T07:36:31.381Z,2096
2017-03-21T07:37:40.455Z,2448
2017-03-21T07:38:50.386Z,2880
2017-03-21T07:39:59.744Z,1264
2017-03-21T07:41:08.803Z,1560
2017-03-21T07:42:17.849Z,1928
2017-03-21T07:43:28.135Z,1768
2017-03-21T07:44:37.514Z,2468
2017-03-21T07:45:46.274Z,2876
2017-03-21T07:46:54.999Z,2800
2017-03-21T07:48:04.676Z,3172
2017-03-21T07:49:14.361Z,2816
2017-03-21T07:50:23.994Z,3064
2017-03-21T07:51:32.754Z,3536
2017-03-21T07:52:42.131Z,2216
2017-03-21T07:53:52.418Z,2676
2017-03-21T07:55:01.435Z,1916
2017-03-21T07:56:10.801Z,1420
2017-03-21T07:57:20.121Z,1468
2017-03-21T07:58:30.390Z,1456
2017-03-21T07:59:39.468Z,1472
2017-03-21T08:00:48.235Z,1304
2017-03-21T08:01:56.996Z,1276
2017-03-21T08:03:06.072Z,1196
2017-03-21T08:04:15.402Z,896
2017-03-21T08:05:24.178Z,816
2017-03-21T08:06:33.245Z,784
2017-03-21T08:07:42.570Z,820
2017-03-21T08:08:52.786Z,720
2017-03-21T08:10:02.389Z,652
2017-03-21T08:11:11.387Z,652
2017-03-21T08:12:20.750Z,644
2017-03-21T08:13:30.738Z,596
2017-03-21T08:14:40.357Z,416
2017-03-21T08:15:49.109Z,508
2017-03-21T08:16:58.181Z,656
2017-03-21T08:18:07.245Z,664
2017-03-21T08:19:16.935Z,580
2017-03-21T08:20:26.003Z,504
2017-03-21T08:21:35.074Z,944
2017-03-21T08:22:44.449Z,744
2017-03-21T08:23:54.786Z,808
2017-03-21T08:25:04.470Z,972
2017-03-21T08:26:13.530Z,884
2017-03-21T08:27:22.586Z,912
2017-03-21T08:28:32.875Z,768
2017-03-21T08:29:41.947Z,648
2017-03-21T08:30:51.318Z,624
2017-03-21T08:32:00.383Z,604
2017-03-21T08:33:09.140Z,472
2017-03-21T08:34:17.907Z,356
2017-03-21T08:35:26.963Z,380
2017-03-21T08:36:35.735Z,368
2017-03-21T08:37:44.495Z,360
2017-03-21T08:38:53.880Z,416
2017-03-21T08:40:03.806Z,384
2017-03-21T08:41:12.569Z,412
2017-03-21T08:42:21.632Z,296
2017-03-21T08:43:30.691Z,304
2017-03-21T08:44:39.762Z,556
2017-03-21T08:45:48.528Z,520
2017-03-21T08:46:57.300Z,508
2017-03-21T08:48:06.006Z,436
2017-03-21T08:49:14.745Z,324
2017-03-21T08:50:23.815Z,268
2017-03-21T08:51:32.824Z,276
2017-03-21T08:52:41.574Z,464
2017-03-21T08:53:50.350Z,500
2017-03-21T08:54:59.415Z,348
2017-03-21T08:56:08.183Z,320
2017-03-21T08:57:16.898Z,356
2017-03-21T08:58:25.951Z,176
2017-03-21T08:59:34.967Z,160
2017-03-21T09:00:44.022Z,172
2017-03-21T09:01:52.803Z,184
2017-03-21T09:03:01.562Z,160
2017-03-21T09:04:10.625Z,208
2017-03-21T09:05:19.391Z,284
2017-03-21T09:06:28.156Z,344
2017-03-21T09:07:37.484Z,300
2017-03-21T09:08:46.245Z,228
2017-03-21T09:09:55.587Z,196
2017-03-21T09:11:04.932Z,192
2017-03-21T09:12:13.691Z,180
2017-03-21T09:13:22.463Z,192
2017-03-21T09:14:31.478Z,628
2017-03-21T09:15:40.481Z,1264
2017-03-21T09:16:49.235Z,3520
2017-03-21T09:17:58.295Z,1604
2017-03-21T09:19:07.308Z,992
2017-03-21T09:20:16.042Z,1828
2017-03-21T09:21:24.803Z,880
2017-03-21T09:22:33.772Z,728
2017-03-21T09:23:42.836Z,548
2017-03-21T09:24:52.216Z,384
2017-03-21T09:26:01.292Z,312
2017-03-21T09:27:09.998Z,484
2017-03-21T09:28:19.349Z,596
2017-03-21T09:29:28.423Z,536
2017-03-21T09:30:37.177Z,500
2017-03-21T09:31:45.948Z,384
2017-03-21T09:32:55.220Z,324
2017-03-21T09:34:03.986Z,328
2017-03-21T09:35:12.704Z,1436
2017-03-21T09:36:21.754Z,1632
2017-03-21T09:37:30.826Z,2732
2017-03-21T09:38:39.589Z,3096
2017-03-21T09:39:49.271Z,2544
2017-03-21T09:40:58.285Z,2076
2017-03-21T09:42:07.001Z,2140
2017-03-21T09:43:15.979Z,2724
2017-03-21T09:44:25.651Z,2252
2017-03-21T09:45:34.411Z,3960
2017-03-21T09:46:43.464Z,3164
2017-03-21T09:47:52.235Z,3472
2017-03-21T09:49:01.248Z,6208
2017-03-21T09:50:10.047Z,1112
2017-03-21T09:51:19.110Z,800
2017-03-21T09:52:27.866Z,772
2017-03-21T09:53:37.171Z,696
2017-03-21T09:54:45.944Z,656
2017-03-21T09:55:54.711Z,504
2017-03-21T09:57:03.422Z,320
2017-03-21T09:58:12.479Z,200
2017-03-21T09:59:21.247Z,180
2017-03-21T10:00:30.009Z,180
2017-03-21T10:01:38.768Z,248
2017-03-21T10:02:47.845Z,360
2017-03-21T10:03:57.155Z,432
2017-03-21T10:05:06.509Z,368
2017-03-21T10:06:15.276Z,320
2017-03-21T10:07:24.306Z,640
2017-03-21T10:08:33.064Z,724
2017-03-21T10:09:42.438Z,508
2017-03-21T10:10:51.713Z,456
2017-03-21T10:12:00.485Z,380
2017-03-21T10:13:09.200Z,364
2017-03-21T10:14:17.953Z,232
2017-03-21T10:15:27.121Z,200
2017-03-21T10:16:36.168Z,236
2017-03-21T10:17:44.929Z,360
2017-03-21T10:18:53.685Z,316
2017-03-21T10:20:02.759Z,380
2017-03-21T10:21:11.719Z,352
2017-03-21T10:22:20.770Z,544
2017-03-21T10:23:29.834Z,696
2017-03-21T10:24:38.916Z,604
2017-03-21T10:25:47.676Z,404
2017-03-21T10:26:56.435Z,232
2017-03-21T10:28:05.510Z,284
2017-03-21T10:29:14.279Z,268
2017-03-21T10:30:23.052Z,464
2017-03-21T10:31:32.125Z,752
2017-03-21T10:32:40.866Z,1000
2017-03-21T10:33:49.979Z,1040
2017-03-21T10:34:59.053Z,1044
2017-03-21T10:36:08.128Z,876
2017-03-21T10:37:16.893Z,872
2017-03-21T10:38:26.271Z,1520
2017-03-21T10:39:35.281Z,1296
2017-03-21T10:40:44.027Z,2216
2017-03-21T10:41:52.788Z,3012
2017-03-21T10:43:01.546Z,1712
2017-03-21T10:44:10.626Z,1360
2017-03-21T10:45:19.641Z,916
2017-03-21T10:46:28.387Z,704
2017-03-21T10:47:37.150Z,860
2017-03-21T10:48:46.164Z,464
2017-03-21T10:49:54.916Z,392
2017-03-21T10:51:03.619Z,344
2017-03-21T10:52:12.359Z,388
2017-03-21T10:53:21.128Z,428
2017-03-21T10:54:30.043Z,500
2017-03-21T10:55:38.805Z,452
2017-03-21T10:56:47.513Z,420
2017-03-21T10:57:56.263Z,396
2017-03-21T10:59:05.026Z,360
2017-03-21T11:00:13.783Z,392
2017-03-21T11:01:22.854Z,448
2017-03-21T11:02:31.641Z,428
2017-03-21T11:03:40.402Z,412
2017-03-21T11:04:49.467Z,480
2017-03-21T11:05:58.218Z,640
2017-03-21T11:07:06.978Z,888
2017-03-21T11:08:16.051Z,1352
2017-03-21T11:09:24.816Z,1348
2017-03-21T11:10:33.550Z,1576
2017-03-21T11:11:42.296Z,1412
2017-03-21T11:12:51.405Z,912
2017-03-21T11:14:00.173Z,716
2017-03-21T11:15:08.945Z,556
2017-03-21T11:16:17.708Z,496
2017-03-21T11:17:27.084Z,456
2017-03-21T11:18:36.400Z,396
2017-03-21T11:19:45.464Z,464
2017-03-21T11:20:54.531Z,500
2017-03-21T11:22:03.292Z,520
2017-03-21T11:23:12.358Z,572
2017-03-21T11:24:21.415Z,652
2017-03-21T11:25:30.435Z,700
2017-03-21T11:26:39.200Z,732
2017-03-21T11:27:47.963Z,788
2017-03-21T11:28:57.038Z,792
2017-03-21T11:30:06.108Z,812
2017-03-21T11:31:15.176Z,808
2017-03-21T11:32:24.584Z,784
2017-03-21T11:33:33.958Z,732
2017-03-21T11:34:42.693Z,712
2017-03-21T11:35:51.457Z,672
2017-03-21T11:37:00.229Z,540
2017-03-21T11:38:09.297Z,520
2017-03-21T11:39:18.061Z,568
2017-03-21T11:40:27.135Z,656
2017-03-21T11:41:35.895Z,568
2017-03-21T11:42:44.654Z,576
2017-03-21T11:43:53.422Z,608
2017-03-21T11:45:02.738Z,584
2017-03-21T11:46:11.481Z,520
2017-03-21T11:47:20.539Z,496
2017-03-21T11:48:29.799Z,508
2017-03-21T11:49:38.561Z,544
2017-03-21T11:50:47.330Z,624
2017-03-21T11:51:56.090Z,736
2017-03-21T11:53:04.850Z,892
2017-03-21T11:54:13.615Z,1072
2017-03-21T11:55:22.932Z,1640
2017-03-21T11:56:31.930Z,1612
2017-03-21T11:57:40.674Z,2648
2017-03-21T11:58:50.444Z,2328
2017-03-21T11:59:59.213Z,2552
2017-03-21T12:01:08.593Z,2868
2017-03-21T12:02:17.356Z,3060
2017-03-21T12:03:26.126Z,3404
2017-03-21T12:04:35.136Z,3428
2017-03-21T12:05:44.191Z,3420
2017-03-21T12:06:52.909Z,2348
2017-03-21T12:08:01.661Z,2380
2017-03-21T12:09:11.536Z,2076
2017-03-21T12:10:20.916Z,1916
2017-03-21T12:11:29.697Z,1932
2017-03-21T12:12:39.372Z,1928
2017-03-21T12:13:48.440Z,1880
2017-03-21T12:14:57.149Z,1996
2017-03-21T12:16:05.896Z,2012
2017-03-21T12:17:14.979Z,1836
2017-03-21T12:18:23.740Z,1928
2017-03-21T12:19:32.474Z,1860
2017-03-21T12:20:41.215Z,1908
2017-03-21T12:21:50.289Z,2188
2017-03-21T12:22:59.351Z,2008
2017-03-21T12:24:08.429Z,1928
2017-03-21T12:25:17.192Z,1632
2017-03-21T12:26:25.954Z,1460
2017-03-21T12:27:35.022Z,1448
2017-03-21T12:28:44.651Z,1452
2017-03-21T12:29:54.012Z,1620
2017-03-21T12:31:03.687Z,1560
2017-03-21T12:32:12.461Z,1452
2017-03-21T12:33:21.520Z,1188
2017-03-21T12:34:30.893Z,1080
2017-03-21T12:35:39.909Z,1256
2017-03-21T12:36:48.979Z,1208
2017-03-21T12:37:58.355Z,1292
2017-03-21T12:39:07.058Z,1396
2017-03-21T12:40:16.111Z,1452
2017-03-21T12:41:25.172Z,1552
2017-03-21T12:42:34.234Z,1700
2017-03-21T12:43:43.307Z,1760
2017-03-21T12:44:52.680Z,1756
2017-03-21T12:46:01.449Z,1832
2017-03-21T12:47:10.211Z,1720
2017-03-21T12:48:19.532Z,1484
2017-03-21T12:49:28.276Z,1432
2017-03-21T12:50:37.033Z,1420
2017-03-21T12:51:45.788Z,1428
2017-03-21T12:52:54.853Z,1324
2017-03-21T12:54:03.921Z,1368
2017-03-21T12:55:12.988Z,1356
2017-03-21T12:56:21.948Z,1204
2017-03-21T12:57:31.027Z,1300
2017-03-21T12:58:40.091Z,1148
2017-03-21T12:59:48.857Z,1304
2017-03-21T13:00:57.939Z,1404
2017-03-21T13:02:06.705Z,1228
2017-03-21T13:03:15.792Z,1268
2017-03-21T13:04:24.556Z,1488
2017-03-21T13:05:33.321Z,1808
2017-03-21T13:06:42.382Z,1636
2017-03-21T13:07:51.448Z,1792
2017-03-21T13:09:00.207Z,1816
2017-03-21T13:10:09.219Z,1856
2017-03-21T13:11:18.271Z,1928
2017-03-21T13:12:27.239Z,1860
2017-03-21T13:13:35.948Z,1916
2017-03-21T13:14:44.695Z,1932
2017-03-21T13:15:53.764Z,1736
2017-03-21T13:17:02.484Z,1772
2017-03-21T13:18:11.537Z,1708
2017-03-21T13:19:21.527Z,1600
2017-03-21T13:20:31.203Z,1608
2017-03-21T13:21:40.276Z,1736
2017-03-21T13:22:49.591Z,1660
2017-03-21T13:23:58.346Z,1736
2017-03-21T13:25:07.107Z,1948
2017-03-21T13:26:16.786Z,1728
2017-03-21T13:27:26.156Z,1588
2017-03-21T13:28:35.426Z,1292
2017-03-21T13:29:44.185Z,1024
2017-03-21T13:30:53.251Z,948
2017-03-21T13:32:02.564Z,908
2017-03-21T13:33:12.242Z,848
2017-03-21T13:34:21.312Z,888
2017-03-21T13:35:30.223Z,876
2017-03-21T13:36:39.273Z,724
2017-03-21T13:37:48.344Z,576
2017-03-21T13:38:57.362Z,620
2017-03-21T13:40:07.346Z,844
2017-03-21T13:41:16.420Z,1068
2017-03-21T13:42:25.805Z,1088
2017-03-21T13:43:34.866Z,1108
2017-03-21T13:44:43.959Z,908
2017-03-21T13:45:52.719Z,820
2017-03-21T13:47:01.785Z,1020
2017-03-21T13:48:10.547Z,1100
2017-03-21T13:49:19.315Z,980
2017-03-21T13:50:28.270Z,860
2017-03-21T13:51:37.036Z,704
2017-03-21T13:52:46.110Z,620
2017-03-21T13:53:55.478Z,640
2017-03-21T13:55:04.190Z,592
2017-03-21T13:56:12.887Z,552
2017-03-21T13:57:22.249Z,476
2017-03-21T13:58:31.315Z,380
2017-03-21T13:59:40.022Z,340
2017-03-21T14:00:49.079Z,392
2017-03-21T14:01:57.832Z,664
2017-03-21T14:03:06.899Z,728
2017-03-21T14:04:15.966Z,688
2017-03-21T14:05:25.033Z,696
2017-03-21T14:06:34.047Z,832
2017-03-21T14:07:43.404Z,904
2017-03-21T14:08:52.473Z,900
2017-03-21T14:10:01.228Z,832
2017-03-21T14:11:10.294Z,844
2017-03-21T14:12:19.363Z,868
2017-03-21T14:13:28.121Z,872
2017-03-21T14:14:36.884Z,804
2017-03-21T14:15:45.952Z,828
2017-03-21T14:16:54.658Z,900
2017-03-21T14:18:03.405Z,1016
2017-03-21T14:19:12.168Z,1052
2017-03-21T14:20:20.926Z,1076
2017-03-21T14:21:29.996Z,1060
2017-03-21T14:22:38.970Z,1084
2017-03-21T14:23:48.347Z,1096
2017-03-21T14:24:57.422Z,1080
2017-03-21T14:26:06.186Z,1064
2017-03-21T14:27:15.561Z,1028
2017-03-21T14:28:57.321Z,968
2017-03-21T14:30:06.124Z,844
2017-03-21T14:31:15.436Z,772
2017-03-21T14:32:24.191Z,812
2017-03-21T14:33:33.534Z,788
2017-03-21T14:34:42.834Z,704
2017-03-21T14:35:51.575Z,668
2017-03-21T14:37:00.341Z,644
2017-03-21T14:38:09.717Z,704
2017-03-21T14:39:18.780Z,764
2017-03-21T14:40:28.049Z,776
2017-03-21T14:41:36.774Z,756
2017-03-21T14:42:46.448Z,608
2017-03-21T14:43:55.223Z,408
2017-03-21T14:45:04.900Z,308
2017-03-21T14:46:13.666Z,288
2017-03-21T14:47:22.727Z,344
2017-03-21T14:48:31.791Z,436
2017-03-21T14:49:40.549Z,480
2017-03-21T14:50:49.612Z,488
2017-03-21T14:51:58.674Z,568
2017-03-21T14:53:07.577Z,676
2017-03-21T14:54:16.936Z,736
2017-03-21T14:55:25.702Z,780
2017-03-21T14:56:35.531Z,780
2017-03-21T14:57:44.909Z,788
2017-03-21T14:58:54.284Z,796
2017-03-21T15:00:03.048Z,796
2017-03-21T15:01:12.122Z,808
2017-03-21T15:02:20.887Z,808
2017-03-21T15:03:29.653Z,792
2017-03-21T15:04:38.418Z,712
2017-03-21T15:05:47.732Z,580
2017-03-21T15:06:56.784Z,620
2017-03-21T15:08:05.851Z,704
2017-03-21T15:09:15.235Z,752
2017-03-21T15:10:23.995Z,728
2017-03-21T15:11:32.808Z,716
2017-03-21T15:12:41.571Z,712
2017-03-21T15:13:50.331Z,684
2017-03-21T15:14:59.096Z,692
2017-03-21T15:16:08.476Z,684
2017-03-21T15:17:17.210Z,632
2017-03-21T15:18:26.254Z,624
2017-03-21T15:19:35.407Z,680
2017-03-21T15:20:44.499Z,724
2017-03-21T15:21:53.568Z,744
2017-03-21T15:23:02.625Z,792
2017-03-21T15:24:12.310Z,832
2017-03-21T15:25:21.323Z,816
2017-03-21T15:26:30.076Z,800
2017-03-21T15:27:38.784Z,800
2017-03-21T15:28:47.529Z,820
2017-03-21T15:29:56.601Z,788
2017-03-21T15:31:05.682Z,772
2017-03-21T15:32:14.437Z,792
2017-03-21T15:33:23.152Z,772
2017-03-21T15:34:32.515Z,760
2017-03-21T15:35:42.446Z,772
2017-03-21T15:36:51.762Z,748
2017-03-21T15:38:01.113Z,740
2017-03-21T15:39:10.167Z,716
2017-03-21T15:40:19.236Z,688
2017-03-21T15:41:28.252Z,680
2017-03-21T15:42:37.326Z,644
2017-03-21T15:43:46.400Z,592
2017-03-21T15:44:55.410Z,584
2017-03-21T15:46:04.160Z,592
2017-03-21T15:47:12.918Z,580
2017-03-21T15:48:22.286Z,552
2017-03-21T15:49:31.666Z,520
2017-03-21T15:50:40.734Z,484
2017-03-21T15:51:49.501Z,456
2017-03-21T15:52:58.265Z,468
2017-03-21T15:54:07.326Z,464
2017-03-21T15:55:16.396Z,468
2017-03-21T15:56:25.169Z,492
2017-03-21T15:57:33.880Z,480
2017-03-21T15:58:43.182Z,464
2017-03-21T15:59:51.925Z,456
2017-03-21T16:01:00.693Z,452
2017-03-21T16:02:09.766Z,436
2017-03-21T16:03:18.834Z,424
2017-03-21T16:04:28.223Z,416
2017-03-21T16:05:37.291Z,420
2017-03-21T16:06:46.310Z,404
2017-03-21T16:07:55.067Z,388
2017-03-21T16:09:04.433Z,392
2017-03-21T16:10:13.811Z,392
2017-03-21T16:11:22.527Z,384